sensor_id;sensor_type;location;lat;lon;timestamp;temperature;humidity
25550;DHT22;13444;50.562;7.262;2023-06-10T00:00:09;18.50;99.90
25550;DHT22;13444;50.562;7.262;2023-06-10T00:02:38;18.40;99.90
25550;DHT22;13444;50.562;7.262;2023-06-10T00:05:04;18.40;99.90
25550;DHT22;13444;50.562;7.262;2023-06-10T00:07:30;18.30;99.90
25550;DHT22;13444;50.562;7.262;2023-06-10T00:09:55;18.30;99.90
25550;DHT22;13444;50.562;7.262;2023-06-10T00:12:21;18.20;99.90
25550;DHT22;13444;50.562;7.262;2023-06-10T00:14:46;18.20;99.90
25550;DHT22;13444;50.562;7.262;2023-06-10T00:17:15;18.10;99.90
25550;DHT22;13444;50.562;7.262;2023-06-10T00:19:41;18.10;99.90
25550;DHT22;13444;50.562;7.262;2023-06-10T00:22:06;18.00;99.90
25550;DHT22;13444;50.562;7.262;2023-06-10T00:24:32;18.00;99.90
25550;DHT22;13444;50.562;7.262;2023-06-10T00:26:58;18.00;99.90
25550;DHT22;13444;50.562;7.262;2023-06-10T00:29:23;18.00;99.90
25550;DHT22;13444;50.562;7.262;2023-06-10T00:31:49;17.90;99.90
25550;DHT22;13444;50.562;7.262;2023-06-10T00:34:14;17.90;99.90
25550;DHT22;13444;50.562;7.262;2023-06-10T00:36:40;17.90;99.90
25550;DHT22;13444;50.562;7.262;2023-06-10T00:39:05;17.80;99.90
25550;DHT22;13444;50.562;7.262;2023-06-10T00:41:31;17.80;99.90
25550;DHT22;13444;50.562;7.262;2023-06-10T00:43:59;17.70;99.90
25550;DHT22;13444;50.562;7.262;2023-06-10T00:46:25;17.70;99.90
25550;DHT22;13444;50.562;7.262;2023-06-10T00:48:52;17.60;99.90
25550;DHT22;13444;50.562;7.262;2023-06-10T00:51:18;17.60;99.90
25550;DHT22;13444;50.562;7.262;2023-06-10T00:53:45;17.50;99.90
25550;DHT22;13444;50.562;7.262;2023-06-10T00:56:11;17.50;99.90
25550;DHT22;13444;50.562;7.262;2023-06-10T00:58:36;17.50;99.90
25550;DHT22;13444;50.562;7.262;2023-06-10T01:01:03;17.40;99.90
25550;DHT22;13444;50.562;7.262;2023-06-10T01:03:29;17.40;99.90
25550;DHT22;13444;50.562;7.262;2023-06-10T01:06:22;17.30;99.90
25550;DHT22;13444;50.562;7.262;2023-06-10T01:08:57;17.30;99.90
25550;DHT22;13444;50.562;7.262;2023-06-10T01:14:22;17.10;99.90
25550;DHT22;13444;50.562;7.262;2023-06-10T01:16:48;17.10;99.90
25550;DHT22;13444;50.562;7.262;2023-06-10T01:19:15;17.10;99.90
25550;DHT22;13444;50.562;7.262;2023-06-10T01:21:43;17.10;99.90
25550;DHT22;13444;50.562;7.262;2023-06-10T01:24:14;17.10;99.90
25550;DHT22;13444;50.562;7.262;2023-06-10T01:26:43;17.10;99.90
25550;DHT22;13444;50.562;7.262;2023-06-10T01:29:24;17.20;99.90
25550;DHT22;13444;50.562;7.262;2023-06-10T01:32:04;17.20;99.90
25550;DHT22;13444;50.562;7.262;2023-06-10T01:34:32;17.20;99.90
25550;DHT22;13444;50.562;7.262;2023-06-10T01:36:58;17.20;99.90
25550;DHT22;13444;50.562;7.262;2023-06-10T01:39:24;17.10;99.90
25550;DHT22;13444;50.562;7.262;2023-06-10T01:41:52;17.10;99.90
25550;DHT22;13444;50.562;7.262;2023-06-10T01:44:19;17.00;99.90
25550;DHT22;13444;50.562;7.262;2023-06-10T01:46:45;17.00;99.90
25550;DHT22;13444;50.562;7.262;2023-06-10T01:49:10;17.00;99.90
25550;DHT22;13444;50.562;7.262;2023-06-10T01:51:36;17.00;99.90
25550;DHT22;13444;50.562;7.262;2023-06-10T01:54:01;17.00;99.90
25550;DHT22;13444;50.562;7.262;2023-06-10T01:56:27;17.00;99.90
25550;DHT22;13444;50.562;7.262;2023-06-10T01:58:52;17.00;99.90
25550;DHT22;13444;50.562;7.262;2023-06-10T02:01:20;17.00;99.90
25550;DHT22;13444;50.562;7.262;2023-06-10T02:03:46;16.90;99.90
25550;DHT22;13444;50.562;7.262;2023-06-10T02:06:11;16.90;99.90
25550;DHT22;13444;50.562;7.262;2023-06-10T02:08:37;16.80;99.90
25550;DHT22;13444;50.562;7.262;2023-06-10T02:11:02;16.70;99.90
25550;DHT22;13444;50.562;7.262;2023-06-10T02:13:28;16.70;99.90
25550;DHT22;13444;50.562;7.262;2023-06-10T02:15:53;16.70;99.90
25550;DHT22;13444;50.562;7.262;2023-06-10T02:18:19;16.60;99.90
25550;DHT22;13444;50.562;7.262;2023-06-10T02:20:46;16.60;99.90
25550;DHT22;13444;50.562;7.262;2023-06-10T02:23:11;16.60;99.90
25550;DHT22;13444;50.562;7.262;2023-06-10T02:25:37;16.60;99.90
25550;DHT22;13444;50.562;7.262;2023-06-10T02:28:02;16.50;99.90
25550;DHT22;13444;50.562;7.262;2023-06-10T02:30:29;16.50;99.90
25550;DHT22;13444;50.562;7.262;2023-06-10T02:32:54;16.50;99.90
25550;DHT22;13444;50.562;7.262;2023-06-10T02:35:21;16.50;99.90
25550;DHT22;13444;50.562;7.262;2023-06-10T02:37:49;16.50;99.90
25550;DHT22;13444;50.562;7.262;2023-06-10T02:40:15;16.40;99.90
25550;DHT22;13444;50.562;7.262;2023-06-10T02:42:41;16.40;99.90
25550;DHT22;13444;50.562;7.262;2023-06-10T02:45:07;16.40;99.90
25550;DHT22;13444;50.562;7.262;2023-06-10T02:47:33;16.40;99.90
25550;DHT22;13444;50.562;7.262;2023-06-10T02:49:58;16.40;99.90
25550;DHT22;13444;50.562;7.262;2023-06-10T02:52:24;16.40;99.90
25550;DHT22;13444;50.562;7.262;2023-06-10T02:54:50;16.40;99.90
25550;DHT22;13444;50.562;7.262;2023-06-10T02:57:16;16.40;99.90
25550;DHT22;13444;50.562;7.262;2023-06-10T02:59:41;16.40;99.90
25550;DHT22;13444;50.562;7.262;2023-06-10T03:02:07;16.30;99.90
25550;DHT22;13444;50.562;7.262;2023-06-10T03:04:33;16.30;99.90
25550;DHT22;13444;50.562;7.262;2023-06-10T03:06:58;16.30;99.90
25550;DHT22;13444;50.562;7.262;2023-06-10T03:09:25;16.20;99.90
25550;DHT22;13444;50.562;7.262;2023-06-10T03:11:51;16.20;99.90
25550;DHT22;13444;50.562;7.262;2023-06-10T03:14:16;16.10;99.90
25550;DHT22;13444;50.562;7.262;2023-06-10T03:16:42;16.10;99.90
25550;DHT22;13444;50.562;7.262;2023-06-10T03:19:08;16.00;99.90
25550;DHT22;13444;50.562;7.262;2023-06-10T03:21:35;16.00;99.90
25550;DHT22;13444;50.562;7.262;2023-06-10T03:24:00;16.00;99.90
25550;DHT22;13444;50.562;7.262;2023-06-10T03:26:26;16.00;99.90
25550;DHT22;13444;50.562;7.262;2023-06-10T03:28:52;16.00;99.90
25550;DHT22;13444;50.562;7.262;2023-06-10T03:31:18;16.00;99.90
25550;DHT22;13444;50.562;7.262;2023-06-10T03:33:44;16.00;99.90
25550;DHT22;13444;50.562;7.262;2023-06-10T03:36:09;16.00;99.90
25550;DHT22;13444;50.562;7.262;2023-06-10T03:38:35;15.90;99.90
25550;DHT22;13444;50.562;7.262;2023-06-10T03:41:01;15.90;99.90
25550;DHT22;13444;50.562;7.262;2023-06-10T03:43:26;15.90;99.90
25550;DHT22;13444;50.562;7.262;2023-06-10T03:45:53;15.90;99.90
25550;DHT22;13444;50.562;7.262;2023-06-10T03:48:18;15.80;99.90
25550;DHT22;13444;50.562;7.262;2023-06-10T03:50:44;15.80;99.90
25550;DHT22;13444;50.562;7.262;2023-06-10T03:53:09;15.80;99.90
25550;DHT22;13444;50.562;7.262;2023-06-10T03:55:35;15.80;99.90
25550;DHT22;13444;50.562;7.262;2023-06-10T03:58:01;15.70;99.90
25550;DHT22;13444;50.562;7.262;2023-06-10T04:00:27;15.70;99.90
25550;DHT22;13444;50.562;7.262;2023-06-10T04:02:54;15.70;99.90
25550;DHT22;13444;50.562;7.262;2023-06-10T04:05:23;15.70;99.90
25550;DHT22;13444;50.562;7.262;2023-06-10T04:07:49;15.80;99.90
25550;DHT22;13444;50.562;7.262;2023-06-10T04:10:15;15.80;99.90
25550;DHT22;13444;50.562;7.262;2023-06-10T04:12:41;15.90;99.90
25550;DHT22;13444;50.562;7.262;2023-06-10T04:15:07;15.90;99.90
25550;DHT22;13444;50.562;7.262;2023-06-10T04:17:33;15.90;99.90
25550;DHT22;13444;50.562;7.262;2023-06-10T04:19:59;15.90;99.90
25550;DHT22;13444;50.562;7.262;2023-06-10T04:22:26;15.90;99.90
25550;DHT22;13444;50.562;7.262;2023-06-10T04:24:51;15.90;99.90
25550;DHT22;13444;50.562;7.262;2023-06-10T04:27:17;16.00;99.90
25550;DHT22;13444;50.562;7.262;2023-06-10T04:29:42;16.00;99.90
25550;DHT22;13444;50.562;7.262;2023-06-10T04:32:08;16.10;99.90
25550;DHT22;13444;50.562;7.262;2023-06-10T04:34:34;16.20;99.90
25550;DHT22;13444;50.562;7.262;2023-06-10T04:36:59;16.30;99.90
25550;DHT22;13444;50.562;7.262;2023-06-10T04:39:25;16.30;99.90
25550;DHT22;13444;50.562;7.262;2023-06-10T04:41:51;16.40;99.90
25550;DHT22;13444;50.562;7.262;2023-06-10T04:44:16;16.40;99.90
25550;DHT22;13444;50.562;7.262;2023-06-10T04:46:42;16.50;99.90
25550;DHT22;13444;50.562;7.262;2023-06-10T04:49:07;16.60;99.90
25550;DHT22;13444;50.562;7.262;2023-06-10T04:51:33;16.60;99.90
25550;DHT22;13444;50.562;7.262;2023-06-10T04:53:59;16.60;99.90
25550;DHT22;13444;50.562;7.262;2023-06-10T04:56:29;16.60;99.90
25550;DHT22;13444;50.562;7.262;2023-06-10T04:58:54;16.70;99.90
25550;DHT22;13444;50.562;7.262;2023-06-10T05:01:20;16.80;99.90
25550;DHT22;13444;50.562;7.262;2023-06-10T05:03:45;16.80;99.90
25550;DHT22;13444;50.562;7.262;2023-06-10T05:06:11;16.80;99.90
25550;DHT22;13444;50.562;7.262;2023-06-10T05:08:36;16.80;99.90
25550;DHT22;13444;50.562;7.262;2023-06-10T05:11:02;16.90;99.90
25550;DHT22;13444;50.562;7.262;2023-06-10T05:13:27;16.90;99.90
25550;DHT22;13444;50.562;7.262;2023-06-10T05:15:53;16.90;99.90
25550;DHT22;13444;50.562;7.262;2023-06-10T05:18:18;17.00;99.90
25550;DHT22;13444;50.562;7.262;2023-06-10T05:20:44;17.00;99.90
25550;DHT22;13444;50.562;7.262;2023-06-10T05:23:09;17.10;99.90
25550;DHT22;13444;50.562;7.262;2023-06-10T05:25:35;17.20;99.90
25550;DHT22;13444;50.562;7.262;2023-06-10T05:28:01;17.30;99.90
25550;DHT22;13444;50.562;7.262;2023-06-10T05:30:27;17.40;99.90
25550;DHT22;13444;50.562;7.262;2023-06-10T05:32:53;17.50;99.90
25550;DHT22;13444;50.562;7.262;2023-06-10T05:35:18;17.70;99.90
25550;DHT22;13444;50.562;7.262;2023-06-10T05:37:44;17.80;99.90
25550;DHT22;13444;50.562;7.262;2023-06-10T05:40:10;18.00;99.90
25550;DHT22;13444;50.562;7.262;2023-06-10T05:42:36;18.30;99.90
25550;DHT22;13444;50.562;7.262;2023-06-10T05:45:02;18.50;99.90
25550;DHT22;13444;50.562;7.262;2023-06-10T05:47:28;18.70;99.90
25550;DHT22;13444;50.562;7.262;2023-06-10T05:49:53;18.90;99.90
25550;DHT22;13444;50.562;7.262;2023-06-10T05:52:19;19.00;99.90
25550;DHT22;13444;50.562;7.262;2023-06-10T05:54:44;19.20;99.90
25550;DHT22;13444;50.562;7.262;2023-06-10T05:57:10;19.40;99.90
25550;DHT22;13444;50.562;7.262;2023-06-10T05:59:36;19.60;99.90
25550;DHT22;13444;50.562;7.262;2023-06-10T06:02:01;19.60;99.90
25550;DHT22;13444;50.562;7.262;2023-06-10T06:04:27;19.70;99.90
25550;DHT22;13444;50.562;7.262;2023-06-10T06:06:52;19.70;99.90
25550;DHT22;13444;50.562;7.262;2023-06-10T06:09:18;19.80;99.90
25550;DHT22;13444;50.562;7.262;2023-06-10T06:11:43;19.90;99.90
25550;DHT22;13444;50.562;7.262;2023-06-10T06:14:09;20.00;99.90
25550;DHT22;13444;50.562;7.262;2023-06-10T06:16:34;20.10;99.90
25550;DHT22;13444;50.562;7.262;2023-06-10T06:19:00;20.20;99.90
25550;DHT22;13444;50.562;7.262;2023-06-10T06:21:26;20.30;99.90
25550;DHT22;13444;50.562;7.262;2023-06-10T06:23:51;20.50;99.90
25550;DHT22;13444;50.562;7.262;2023-06-10T06:26:17;20.70;99.90
25550;DHT22;13444;50.562;7.262;2023-06-10T06:28:42;20.80;99.90
25550;DHT22;13444;50.562;7.262;2023-06-10T06:31:08;20.90;99.90
25550;DHT22;13444;50.562;7.262;2023-06-10T06:33:33;21.10;99.90
25550;DHT22;13444;50.562;7.262;2023-06-10T06:35:59;21.10;99.90
25550;DHT22;13444;50.562;7.262;2023-06-10T06:38:26;21.20;99.90
25550;DHT22;13444;50.562;7.262;2023-06-10T06:40:51;21.30;99.90
25550;DHT22;13444;50.562;7.262;2023-06-10T06:43:17;21.30;99.90
25550;DHT22;13444;50.562;7.262;2023-06-10T06:45:44;21.50;99.90
25550;DHT22;13444;50.562;7.262;2023-06-10T06:48:11;21.60;99.90
25550;DHT22;13444;50.562;7.262;2023-06-10T06:50:36;21.80;99.90
25550;DHT22;13444;50.562;7.262;2023-06-10T06:53:03;22.00;99.90
25550;DHT22;13444;50.562;7.262;2023-06-10T06:55:28;22.10;99.90
25550;DHT22;13444;50.562;7.262;2023-06-10T06:57:54;22.20;99.90
25550;DHT22;13444;50.562;7.262;2023-06-10T07:00:19;22.30;99.90
25550;DHT22;13444;50.562;7.262;2023-06-10T07:02:45;22.50;99.90
25550;DHT22;13444;50.562;7.262;2023-06-10T07:05:10;22.70;99.90
25550;DHT22;13444;50.562;7.262;2023-06-10T07:07:36;22.80;99.90
25550;DHT22;13444;50.562;7.262;2023-06-10T07:10:02;22.90;99.90
25550;DHT22;13444;50.562;7.262;2023-06-10T07:12:27;23.10;99.90
25550;DHT22;13444;50.562;7.262;2023-06-10T07:14:53;23.20;99.90
25550;DHT22;13444;50.562;7.262;2023-06-10T07:17:18;23.40;99.90
25550;DHT22;13444;50.562;7.262;2023-06-10T07:19:45;23.60;99.90
25550;DHT22;13444;50.562;7.262;2023-06-10T07:22:11;23.80;99.90
25550;DHT22;13444;50.562;7.262;2023-06-10T07:24:36;23.80;99.90
25550;DHT22;13444;50.562;7.262;2023-06-10T07:27:02;23.90;99.90
25550;DHT22;13444;50.562;7.262;2023-06-10T07:29:27;24.10;99.90
25550;DHT22;13444;50.562;7.262;2023-06-10T07:31:53;24.10;99.90
25550;DHT22;13444;50.562;7.262;2023-06-10T07:34:19;24.20;99.90
25550;DHT22;13444;50.562;7.262;2023-06-10T07:36:44;24.30;99.90
25550;DHT22;13444;50.562;7.262;2023-06-10T07:39:10;24.30;99.90
25550;DHT22;13444;50.562;7.262;2023-06-10T07:41:36;24.40;99.90
25550;DHT22;13444;50.562;7.262;2023-06-10T07:44:02;24.40;99.90
25550;DHT22;13444;50.562;7.262;2023-06-10T07:46:27;24.50;99.90
25550;DHT22;13444;50.562;7.262;2023-06-10T07:48:54;24.70;99.90
25550;DHT22;13444;50.562;7.262;2023-06-10T07:51:20;24.90;99.90
25550;DHT22;13444;50.562;7.262;2023-06-10T07:53:46;25.10;99.90
25550;DHT22;13444;50.562;7.262;2023-06-10T07:56:12;25.40;99.90
25550;DHT22;13444;50.562;7.262;2023-06-10T07:58:38;25.40;99.90
25550;DHT22;13444;50.562;7.262;2023-06-10T08:01:03;25.50;99.90
25550;DHT22;13444;50.562;7.262;2023-06-10T08:03:29;25.60;99.90
25550;DHT22;13444;50.562;7.262;2023-06-10T08:05:54;25.70;99.90
25550;DHT22;13444;50.562;7.262;2023-06-10T08:08:20;25.90;99.90
25550;DHT22;13444;50.562;7.262;2023-06-10T08:10:45;26.10;99.90
25550;DHT22;13444;50.562;7.262;2023-06-10T08:13:11;26.30;99.90
25550;DHT22;13444;50.562;7.262;2023-06-10T08:15:36;26.40;99.90
25550;DHT22;13444;50.562;7.262;2023-06-10T08:18:02;26.40;99.90
25550;DHT22;13444;50.562;7.262;2023-06-10T08:20:27;26.40;99.90
25550;DHT22;13444;50.562;7.262;2023-06-10T08:22:53;26.50;99.90
25550;DHT22;13444;50.562;7.262;2023-06-10T08:25:18;26.70;99.90
25550;DHT22;13444;50.562;7.262;2023-06-10T08:27:44;26.60;99.90
25550;DHT22;13444;50.562;7.262;2023-06-10T08:30:10;26.60;99.90
25550;DHT22;13444;50.562;7.262;2023-06-10T08:32:36;26.70;99.90
25550;DHT22;13444;50.562;7.262;2023-06-10T08:35:02;26.90;99.90
25550;DHT22;13444;50.562;7.262;2023-06-10T08:37:29;27.10;99.90
25550;DHT22;13444;50.562;7.262;2023-06-10T08:39:54;27.50;99.90
25550;DHT22;13444;50.562;7.262;2023-06-10T08:42:24;27.50;99.90
25550;DHT22;13444;50.562;7.262;2023-06-10T08:44:56;27.90;99.90
25550;DHT22;13444;50.562;7.262;2023-06-10T08:47:23;28.20;99.90
25550;DHT22;13444;50.562;7.262;2023-06-10T08:49:49;28.70;99.90
25550;DHT22;13444;50.562;7.262;2023-06-10T08:52:20;29.20;99.90
25550;DHT22;13444;50.562;7.262;2023-06-10T08:54:54;29.60;99.90
25550;DHT22;13444;50.562;7.262;2023-06-10T08:57:22;29.90;99.90
25550;DHT22;13444;50.562;7.262;2023-06-10T08:59:49;30.10;99.90
25550;DHT22;13444;50.562;7.262;2023-06-10T09:02:15;30.20;99.90
25550;DHT22;13444;50.562;7.262;2023-06-10T09:04:42;30.20;99.90
25550;DHT22;13444;50.562;7.262;2023-06-10T09:07:09;30.60;99.90
25550;DHT22;13444;50.562;7.262;2023-06-10T09:09:36;30.80;99.90
25550;DHT22;13444;50.562;7.262;2023-06-10T09:12:01;30.70;99.90
25550;DHT22;13444;50.562;7.262;2023-06-10T09:14:27;30.90;99.90
25550;DHT22;13444;50.562;7.262;2023-06-10T09:16:52;30.60;99.90
25550;DHT22;13444;50.562;7.262;2023-06-10T09:19:23;30.40;99.90
25550;DHT22;13444;50.562;7.262;2023-06-10T09:21:49;30.50;99.90
25550;DHT22;13444;50.562;7.262;2023-06-10T09:24:15;30.10;99.90
25550;DHT22;13444;50.562;7.262;2023-06-10T09:26:43;30.30;99.90
25550;DHT22;13444;50.562;7.262;2023-06-10T09:29:09;30.60;99.90
25550;DHT22;13444;50.562;7.262;2023-06-10T09:31:38;30.90;99.90
25550;DHT22;13444;50.562;7.262;2023-06-10T09:34:12;30.70;99.90
25550;DHT22;13444;50.562;7.262;2023-06-10T09:36:39;30.90;99.90
25550;DHT22;13444;50.562;7.262;2023-06-10T09:39:05;30.90;99.90
25550;DHT22;13444;50.562;7.262;2023-06-10T09:41:43;30.80;99.90
25550;DHT22;13444;50.562;7.262;2023-06-10T09:44:18;31.20;99.90
25550;DHT22;13444;50.562;7.262;2023-06-10T09:46:46;31.60;99.90
25550;DHT22;13444;50.562;7.262;2023-06-10T09:49:12;31.60;99.90
25550;DHT22;13444;50.562;7.262;2023-06-10T09:51:57;31.60;99.90
25550;DHT22;13444;50.562;7.262;2023-06-10T09:54:22;31.60;99.90
25550;DHT22;13444;50.562;7.262;2023-06-10T09:56:49;31.60;99.90
25550;DHT22;13444;50.562;7.262;2023-06-10T09:59:16;31.50;99.90
25550;DHT22;13444;50.562;7.262;2023-06-10T10:01:55;31.60;99.90
25550;DHT22;13444;50.562;7.262;2023-06-10T10:04:25;31.80;99.90
25550;DHT22;13444;50.562;7.262;2023-06-10T10:06:50;31.90;99.90
25550;DHT22;13444;50.562;7.262;2023-06-10T10:09:16;31.90;99.90
25550;DHT22;13444;50.562;7.262;2023-06-10T10:11:43;32.30;99.90
25550;DHT22;13444;50.562;7.262;2023-06-10T10:14:09;32.60;99.90
25550;DHT22;13444;50.562;7.262;2023-06-10T10:16:37;32.60;99.90
25550;DHT22;13444;50.562;7.262;2023-06-10T10:19:23;32.70;99.90
25550;DHT22;13444;50.562;7.262;2023-06-10T10:22:01;32.80;99.90
25550;DHT22;13444;50.562;7.262;2023-06-10T10:24:49;32.40;99.60
25550;DHT22;13444;50.562;7.262;2023-06-10T10:27:21;32.40;99.50
25550;DHT22;13444;50.562;7.262;2023-06-10T10:29:52;32.20;96.90
25550;DHT22;13444;50.562;7.262;2023-06-10T10:32:23;32.00;97.40
25550;DHT22;13444;50.562;7.262;2023-06-10T10:35:07;31.80;97.00
25550;DHT22;13444;50.562;7.262;2023-06-10T10:37:33;31.60;95.20
25550;DHT22;13444;50.562;7.262;2023-06-10T10:40:00;31.60;94.70
25550;DHT22;13444;50.562;7.262;2023-06-10T10:42:26;31.40;94.40
25550;DHT22;13444;50.562;7.262;2023-06-10T10:44:53;31.60;94.40
25550;DHT22;13444;50.562;7.262;2023-06-10T10:47:21;31.90;92.80
25550;DHT22;13444;50.562;7.262;2023-06-10T10:49:50;32.10;93.40
25550;DHT22;13444;50.562;7.262;2023-06-10T10:52:16;32.20;92.50
25550;DHT22;13444;50.562;7.262;2023-06-10T10:54:46;32.20;93.30
25550;DHT22;13444;50.562;7.262;2023-06-10T10:57:19;32.30;92.40
25550;DHT22;13444;50.562;7.262;2023-06-10T10:59:53;32.50;92.50
25550;DHT22;13444;50.562;7.262;2023-06-10T11:02:50;32.40;92.00
25550;DHT22;13444;50.562;7.262;2023-06-10T11:05:32;31.90;92.90
25550;DHT22;13444;50.562;7.262;2023-06-10T11:07:57;31.90;92.50
25550;DHT22;13444;50.562;7.262;2023-06-10T11:10:36;31.90;92.00
25550;DHT22;13444;50.562;7.262;2023-06-10T11:13:09;32.30;93.00
25550;DHT22;13444;50.562;7.262;2023-06-10T11:15:43;32.70;91.60
25550;DHT22;13444;50.562;7.262;2023-06-10T11:18:12;32.80;91.80
25550;DHT22;13444;50.562;7.262;2023-06-10T11:26:12;33.30;87.60
25550;DHT22;13444;50.562;7.262;2023-06-10T11:28:42;33.50;86.20
25550;DHT22;13444;50.562;7.262;2023-06-10T11:34:00;33.30;88.30
25550;DHT22;13444;50.562;7.262;2023-06-10T11:36:27;33.50;87.90
25550;DHT22;13444;50.562;7.262;2023-06-10T11:39:03;33.90;90.40
25550;DHT22;13444;50.562;7.262;2023-06-10T11:41:30;34.20;85.70
25550;DHT22;13444;50.562;7.262;2023-06-10T11:43:58;34.40;85.00
25550;DHT22;13444;50.562;7.262;2023-06-10T11:46:26;34.20;80.80
25550;DHT22;13444;50.562;7.262;2023-06-10T11:48:58;34.00;83.40
25550;DHT22;13444;50.562;7.262;2023-06-10T11:51:29;34.00;79.90
25550;DHT22;13444;50.562;7.262;2023-06-10T11:53:55;33.70;78.90
25550;DHT22;13444;50.562;7.262;2023-06-10T11:56:25;33.90;80.70
25550;DHT22;13444;50.562;7.262;2023-06-10T11:59:02;34.10;78.90
25550;DHT22;13444;50.562;7.262;2023-06-10T12:01:29;33.50;77.20
25550;DHT22;13444;50.562;7.262;2023-06-10T12:04:06;33.70;79.50
25550;DHT22;13444;50.562;7.262;2023-06-10T12:09:27;34.30;76.80
25550;DHT22;13444;50.562;7.262;2023-06-10T12:11:58;34.40;76.30
25550;DHT22;13444;50.562;7.262;2023-06-10T12:14:56;34.60;77.00
25550;DHT22;13444;50.562;7.262;2023-06-10T12:19:58;34.30;76.90
25550;DHT22;13444;50.562;7.262;2023-06-10T12:22:24;34.20;76.80
25550;DHT22;13444;50.562;7.262;2023-06-10T12:25:02;34.30;78.60
25550;DHT22;13444;50.562;7.262;2023-06-10T12:27:32;34.60;76.40
25550;DHT22;13444;50.562;7.262;2023-06-10T12:29:59;34.90;76.00
25550;DHT22;13444;50.562;7.262;2023-06-10T12:32:40;34.80;75.90
25550;DHT22;13444;50.562;7.262;2023-06-10T12:35:07;34.80;73.60
25550;DHT22;13444;50.562;7.262;2023-06-10T12:37:36;34.60;72.50
25550;DHT22;13444;50.562;7.262;2023-06-10T12:40:05;34.40;71.80
25550;DHT22;13444;50.562;7.262;2023-06-10T12:42:32;34.40;74.30
25550;DHT22;13444;50.562;7.262;2023-06-10T12:45:00;34.50;73.30
25550;DHT22;13444;50.562;7.262;2023-06-10T12:47:31;34.30;74.10
25550;DHT22;13444;50.562;7.262;2023-06-10T12:50:01;34.20;74.90
25550;DHT22;13444;50.562;7.262;2023-06-10T12:52:26;34.40;76.60
25550;DHT22;13444;50.562;7.262;2023-06-10T12:54:53;34.40;76.00
25550;DHT22;13444;50.562;7.262;2023-06-10T12:57:19;34.40;76.50
25550;DHT22;13444;50.562;7.262;2023-06-10T12:59:45;34.30;74.30
25550;DHT22;13444;50.562;7.262;2023-06-10T13:02:16;33.80;74.40
25550;DHT22;13444;50.562;7.262;2023-06-10T13:04:45;33.70;75.90
25550;DHT22;13444;50.562;7.262;2023-06-10T13:07:11;33.70;75.30
25550;DHT22;13444;50.562;7.262;2023-06-10T13:09:37;33.70;74.90
25550;DHT22;13444;50.562;7.262;2023-06-10T13:12:03;33.70;73.90
25550;DHT22;13444;50.562;7.262;2023-06-10T13:14:28;33.70;75.20
25550;DHT22;13444;50.562;7.262;2023-06-10T13:16:55;33.80;76.00
25550;DHT22;13444;50.562;7.262;2023-06-10T13:19:20;33.70;73.20
25550;DHT22;13444;50.562;7.262;2023-06-10T13:21:47;33.30;72.30
25550;DHT22;13444;50.562;7.262;2023-06-10T13:24:13;33.30;74.20
25550;DHT22;13444;50.562;7.262;2023-06-10T13:26:39;33.30;73.10
25550;DHT22;13444;50.562;7.262;2023-06-10T13:29:05;33.30;74.70
25550;DHT22;13444;50.562;7.262;2023-06-10T13:31:31;33.40;75.50
25550;DHT22;13444;50.562;7.262;2023-06-10T13:33:57;33.30;72.40
25550;DHT22;13444;50.562;7.262;2023-06-10T13:36:23;33.10;73.50
25550;DHT22;13444;50.562;7.262;2023-06-10T13:38:49;33.00;74.30
25550;DHT22;13444;50.562;7.262;2023-06-10T13:41:14;32.90;73.00
25550;DHT22;13444;50.562;7.262;2023-06-10T13:43:40;32.60;73.30
25550;DHT22;13444;50.562;7.262;2023-06-10T13:46:05;32.50;72.80
25550;DHT22;13444;50.562;7.262;2023-06-10T13:48:31;32.50;76.40
25550;DHT22;13444;50.562;7.262;2023-06-10T13:50:57;32.50;75.30
25550;DHT22;13444;50.562;7.262;2023-06-10T13:53:22;32.50;76.70
25550;DHT22;13444;50.562;7.262;2023-06-10T13:55:48;32.50;76.60
25550;DHT22;13444;50.562;7.262;2023-06-10T13:58:14;32.50;74.30
25550;DHT22;13444;50.562;7.262;2023-06-10T14:00:39;32.50;74.30
25550;DHT22;13444;50.562;7.262;2023-06-10T14:03:05;32.50;73.10
25550;DHT22;13444;50.562;7.262;2023-06-10T14:05:30;32.50;74.00
25550;DHT22;13444;50.562;7.262;2023-06-10T14:07:56;32.40;71.20
25550;DHT22;13444;50.562;7.262;2023-06-10T14:10:21;32.40;72.70
25550;DHT22;13444;50.562;7.262;2023-06-10T14:12:47;32.30;73.10
25550;DHT22;13444;50.562;7.262;2023-06-10T14:15:13;32.30;73.80
25550;DHT22;13444;50.562;7.262;2023-06-10T14:17:38;32.20;72.80
25550;DHT22;13444;50.562;7.262;2023-06-10T14:20:05;32.20;70.90
25550;DHT22;13444;50.562;7.262;2023-06-10T14:22:30;32.10;71.60
25550;DHT22;13444;50.562;7.262;2023-06-10T14:24:56;32.10;71.70
25550;DHT22;13444;50.562;7.262;2023-06-10T14:27:21;31.90;71.90
25550;DHT22;13444;50.562;7.262;2023-06-10T14:29:47;32.00;71.40
25550;DHT22;13444;50.562;7.262;2023-06-10T14:32:12;32.00;72.00
25550;DHT22;13444;50.562;7.262;2023-06-10T14:34:38;32.00;72.60
25550;DHT22;13444;50.562;7.262;2023-06-10T14:37:04;32.00;73.90
25550;DHT22;13444;50.562;7.262;2023-06-10T14:39:32;32.00;75.20
25550;DHT22;13444;50.562;7.262;2023-06-10T14:41:58;32.10;74.30
25550;DHT22;13444;50.562;7.262;2023-06-10T14:44:23;32.00;72.70
25550;DHT22;13444;50.562;7.262;2023-06-10T14:46:49;32.00;74.10
25550;DHT22;13444;50.562;7.262;2023-06-10T14:49:14;31.80;74.20
25550;DHT22;13444;50.562;7.262;2023-06-10T14:51:40;31.80;73.00
25550;DHT22;13444;50.562;7.262;2023-06-10T14:54:06;31.80;73.20
25550;DHT22;13444;50.562;7.262;2023-06-10T14:56:31;31.80;73.10
25550;DHT22;13444;50.562;7.262;2023-06-10T14:58:57;31.80;74.10
25550;DHT22;13444;50.562;7.262;2023-06-10T15:01:22;31.90;71.00
25550;DHT22;13444;50.562;7.262;2023-06-10T15:03:48;31.90;72.40
25550;DHT22;13444;50.562;7.262;2023-06-10T15:06:13;31.90;74.00
25550;DHT22;13444;50.562;7.262;2023-06-10T15:08:42;31.90;75.50
25550;DHT22;13444;50.562;7.262;2023-06-10T15:11:08;31.90;74.30
25550;DHT22;13444;50.562;7.262;2023-06-10T15:13:33;31.90;75.10
25550;DHT22;13444;50.562;7.262;2023-06-10T15:15:59;31.90;76.40
25550;DHT22;13444;50.562;7.262;2023-06-10T15:18:24;31.80;74.10
25550;DHT22;13444;50.562;7.262;2023-06-10T15:20:50;31.80;75.30
25550;DHT22;13444;50.562;7.262;2023-06-10T15:23:15;31.60;73.50
25550;DHT22;13444;50.562;7.262;2023-06-10T15:25:41;31.30;74.90
25550;DHT22;13444;50.562;7.262;2023-06-10T15:28:07;31.20;76.60
25550;DHT22;13444;50.562;7.262;2023-06-10T15:30:33;31.20;76.50
25550;DHT22;13444;50.562;7.262;2023-06-10T15:32:59;31.30;76.30
25550;DHT22;13444;50.562;7.262;2023-06-10T15:35:25;31.40;77.30
25550;DHT22;13444;50.562;7.262;2023-06-10T15:37:52;31.40;76.10
25550;DHT22;13444;50.562;7.262;2023-06-10T15:40:17;31.40;74.40
25550;DHT22;13444;50.562;7.262;2023-06-10T15:42:43;31.30;72.50
25550;DHT22;13444;50.562;7.262;2023-06-10T15:45:09;31.20;73.20